createdAt,value
2018-08-20T00:04:50.760Z,23.50
2018-08-20T00:09:46.089Z,23.60
2018-08-20T00:14:40.549Z,23.50
2018-08-20T00:19:35.047Z,23.60
2018-08-20T00:24:29.493Z,23.60
2018-08-20T00:29:23.964Z,23.60
2018-08-20T00:34:18.421Z,23.60
2018-08-20T00:39:12.958Z,23.60
2018-08-20T00:44:13.245Z,23.40
2018-08-20T00:49:07.708Z,23.40
2018-08-20T00:54:02.168Z,23.30
2018-08-20T00:58:56.690Z,23.30
2018-08-20T01:03:51.113Z,23.30
2018-08-20T01:08:45.537Z,23.30
2018-08-20T01:13:40.013Z,23.10
2018-08-20T01:18:34.413Z,23.10
2018-08-20T01:23:28.897Z,23.10
2018-08-20T01:28:23.358Z,23.00
2018-08-20T01:33:17.855Z,22.80
2018-08-20T01:38:12.337Z,22.60
2018-08-20T01:43:06.861Z,22.50
2018-08-20T01:48:01.384Z,22.50
2018-08-20T01:52:55.872Z,22.30
2018-08-20T01:57:50.336Z,22.10
2018-08-20T02:02:48.856Z,22.00
2018-08-20T02:07:43.276Z,21.90
2018-08-20T02:12:37.809Z,22.00
2018-08-20T02:17:32.241Z,22.00
2018-08-20T02:22:26.678Z,22.00
2018-08-20T02:27:21.178Z,22.10
2018-08-20T02:32:15.661Z,22.00
2018-08-20T02:37:10.149Z,21.80
2018-08-20T02:42:04.669Z,21.60
2018-08-20T02:46:59.209Z,21.60
2018-08-20T02:51:53.688Z,21.70
2018-08-20T02:56:48.156Z,21.60
2018-08-20T03:01:42.679Z,21.60
2018-08-20T03:06:38.068Z,21.60
2018-08-20T03:11:32.565Z,21.50
2018-08-20T03:16:27.063Z,21.40
2018-08-20T03:21:21.585Z,21.30
2018-08-20T03:26:16.112Z,21.20
2018-08-20T03:31:10.568Z,21.10
2018-08-20T03:36:05.251Z,21.00
2018-08-20T03:40:59.729Z,21.00
2018-08-20T03:45:54.237Z,20.90
2018-08-20T03:50:48.712Z,20.80
2018-08-20T03:55:43.143Z,20.70
2018-08-20T04:00:37.608Z,20.60
2018-08-20T04:05:32.095Z,20.60
2018-08-20T04:10:26.675Z,20.50
2018-08-20T04:15:21.146Z,20.40
2018-08-20T04:20:15.695Z,20.40
2018-08-20T04:25:10.236Z,20.40
2018-08-20T04:30:05.229Z,20.40
2018-08-20T04:34:59.672Z,20.40
2018-08-20T04:39:54.133Z,20.40
2018-08-20T04:44:48.692Z,20.40
2018-08-20T04:49:43.213Z,20.40
2018-08-20T04:54:37.688Z,20.50
2018-08-20T04:59:32.196Z,20.50
2018-08-20T05:04:26.770Z,20.50
2018-08-20T05:09:21.253Z,20.50
2018-08-20T05:14:15.757Z,20.60
2018-08-20T05:19:10.320Z,20.70
2018-08-20T05:24:04.876Z,20.90
2018-08-20T05:28:59.774Z,20.90
2018-08-20T05:33:54.696Z,21.00
2018-08-20T05:38:49.140Z,21.80
2018-08-20T05:43:43.756Z,22.50
2018-08-20T05:48:38.170Z,23.40
2018-08-20T05:53:32.586Z,24.80
2018-08-20T05:58:26.987Z,26.00
2018-08-20T06:03:21.428Z,26.60
2018-08-20T06:08:15.927Z,27.10
2018-08-20T06:13:10.341Z,27.40
2018-08-20T06:18:04.868Z,27.90
2018-08-20T06:22:59.393Z,28.20
2018-08-20T06:27:53.952Z,28.40
2018-08-20T06:32:48.384Z,28.70
2018-08-20T06:37:42.936Z,28.60
2018-08-20T06:42:37.380Z,28.30
2018-08-20T06:47:31.841Z,27.80
2018-08-20T06:52:27.289Z,27.80
2018-08-20T06:57:21.693Z,27.80
2018-08-20T07:02:16.537Z,28.00
2018-08-20T07:07:11.396Z,27.80
2018-08-20T07:12:07.493Z,28.00
2018-08-20T07:17:02.125Z,28.00
2018-08-20T07:21:57.430Z,27.80
2018-08-20T07:26:52.025Z,27.90
2018-08-20T07:31:46.465Z,28.00
2018-08-20T07:36:40.982Z,28.00
2018-08-20T07:41:35.460Z,27.60
2018-08-20T07:46:29.912Z,27.80
2018-08-20T07:51:26.699Z,28.10
2018-08-20T07:56:21.245Z,27.80
2018-08-20T08:01:15.703Z,27.70
2018-08-20T08:06:13.014Z,27.80
2018-08-20T08:11:09.080Z,28.00
2018-08-20T08:16:03.651Z,28.20
2018-08-20T08:20:58.168Z,28.00
2018-08-20T08:25:54.711Z,28.20
2018-08-20T08:30:50.575Z,28.40
2018-08-20T08:35:45.228Z,28.40
2018-08-20T08:40:39.750Z,28.10
2018-08-20T08:45:34.195Z,28.00
2018-08-20T08:50:31.744Z,27.90
2018-08-20T08:55:26.301Z,28.30
2018-08-20T09:00:21.806Z,28.40
2018-08-20T09:05:16.405Z,28.40
2018-08-20T09:10:11.951Z,28.30
2018-08-20T09:15:15.213Z,28.30
2018-08-20T09:20:13.236Z,28.10
2018-08-20T09:25:09.421Z,28.40
2018-08-20T09:30:06.167Z,28.60
2018-08-20T09:35:00.563Z,28.20
2018-08-20T09:39:57.028Z,27.60
2018-08-20T09:44:51.789Z,27.90
2018-08-20T09:49:46.192Z,28.30
2018-08-20T09:54:40.910Z,28.70
2018-08-20T09:59:35.689Z,28.90
2018-08-20T10:04:31.466Z,28.80
2018-08-20T10:09:26.070Z,28.90
2018-08-20T10:14:21.634Z,29.10
2018-08-20T10:19:16.218Z,29.20
2018-08-20T10:24:10.893Z,29.20
2018-08-20T10:29:06.173Z,29.20
2018-08-20T10:34:02.127Z,29.30
2018-08-20T10:38:56.877Z,29.20
2018-08-20T10:43:51.401Z,29.10
2018-08-20T10:48:46.036Z,29.40
2018-08-20T10:53:40.467Z,29.50
2018-08-20T10:58:34.988Z,29.50
2018-08-20T11:03:29.620Z,29.70
2018-08-20T11:08:24.080Z,29.80
2018-08-20T11:13:19.726Z,29.90
2018-08-20T11:18:14.273Z,30.00
2018-08-20T11:23:09.066Z,30.10
2018-08-20T11:28:06.619Z,30.10
2018-08-20T11:33:05.475Z,30.10
2018-08-20T11:38:03.611Z,30.00
2018-08-20T11:42:59.095Z,30.20
2018-08-20T11:47:54.000Z,30.20
2018-08-20T11:52:48.912Z,29.80
2018-08-20T11:57:43.404Z,29.80
2018-08-20T12:02:38.923Z,30.00
2018-08-20T12:07:33.585Z,30.10
2018-08-20T12:12:28.100Z,30.30
2018-08-20T12:17:22.622Z,30.10
2018-08-20T12:22:17.186Z,30.10
2018-08-20T12:27:11.986Z,30.20
2018-08-20T12:32:06.458Z,30.10
2018-08-20T12:37:01.099Z,30.00
2018-08-20T12:41:55.806Z,30.10
2018-08-20T12:46:58.684Z,30.30
2018-08-20T12:51:53.264Z,30.30
2018-08-20T12:56:48.354Z,30.40
2018-08-20T13:01:42.774Z,30.30
2018-08-20T13:06:37.280Z,30.30
2018-08-20T13:11:31.856Z,30.20
2018-08-20T13:16:38.662Z,30.20
2018-08-20T13:21:38.215Z,30.20
2018-08-20T13:26:33.317Z,30.40
2018-08-20T13:31:28.548Z,30.30
2018-08-20T13:36:23.120Z,30.30
2018-08-20T13:41:18.270Z,30.30
2018-08-20T13:46:12.911Z,30.20
2018-08-20T13:51:09.728Z,30.30
2018-08-20T13:56:04.856Z,30.30
2018-08-20T14:00:59.410Z,30.40
2018-08-20T14:05:53.852Z,30.50
2018-08-20T14:10:48.304Z,30.50
2018-08-20T14:15:42.970Z,30.50
2018-08-20T14:20:37.459Z,30.40
2018-08-20T14:25:32.065Z,30.40
2018-08-20T14:30:27.419Z,30.40
2018-08-20T14:35:22.069Z,30.40
2018-08-20T14:40:18.540Z,30.50
2018-08-20T14:45:15.152Z,30.60
2018-08-20T14:50:12.709Z,30.60
2018-08-20T14:55:07.789Z,30.70
2018-08-20T15:00:03.396Z,30.60
2018-08-20T15:04:59.169Z,30.70
2018-08-20T15:09:56.673Z,30.80
2018-08-20T15:14:52.506Z,30.80
2018-08-20T15:19:47.190Z,30.70
2018-08-20T15:24:48.790Z,30.80
2018-08-20T15:29:53.541Z,30.90
2018-08-20T15:34:48.920Z,30.80
2018-08-20T15:39:49.130Z,30.90
2018-08-20T15:44:44.756Z,30.90
2018-08-20T15:49:39.702Z,30.80
2018-08-20T15:54:34.976Z,30.80
2018-08-20T15:59:30.466Z,30.80
2018-08-20T16:04:25.535Z,30.70
2018-08-20T16:09:20.684Z,30.60
2018-08-20T16:14:15.514Z,30.70
2018-08-20T16:19:10.213Z,30.60
2018-08-20T16:24:04.874Z,30.70
2018-08-20T16:28:59.604Z,30.70
2018-08-20T16:33:54.573Z,30.60
2018-08-20T16:38:49.144Z,30.60
2018-08-20T16:43:43.853Z,30.60
2018-08-20T16:48:38.550Z,30.50
2018-08-20T16:53:33.350Z,30.50
2018-08-20T16:58:28.286Z,30.50
2018-08-20T17:03:23.105Z,30.50
2018-08-20T17:08:35.368Z,30.30
2018-08-20T17:13:30.662Z,30.30
2018-08-20T17:18:25.464Z,30.40
2018-08-20T17:23:22.092Z,30.30
2018-08-20T17:28:23.777Z,30.10
2018-08-20T17:33:18.417Z,30.00
2018-08-20T17:38:13.282Z,29.90
2018-08-20T17:43:08.786Z,29.80
2018-08-20T17:48:03.554Z,29.90
2018-08-20T17:52:59.773Z,29.80
2018-08-20T17:57:54.583Z,29.60
2018-08-20T18:02:49.293Z,29.40
2018-08-20T18:07:44.053Z,29.10
2018-08-20T18:12:39.447Z,28.80
2018-08-20T18:17:34.125Z,28.50
2018-08-20T18:22:28.673Z,28.30
2018-08-20T18:27:23.612Z,28.00
2018-08-20T18:32:18.541Z,27.80
2018-08-20T18:37:13.319Z,27.60
2018-08-20T18:42:10.002Z,27.40
2018-08-20T18:47:04.861Z,27.20
2018-08-20T18:52:06.266Z,27.00
2018-08-20T18:57:05.148Z,27.00
2018-08-20T19:01:59.728Z,26.90
2018-08-20T19:06:58.873Z,26.70
2018-08-20T19:11:53.562Z,26.50
2018-08-20T19:16:48.342Z,26.50
2018-08-20T19:21:43.502Z,26.40
2018-08-20T19:26:38.221Z,26.20
2018-08-20T19:31:33.149Z,26.00
2018-08-20T19:36:27.693Z,25.90
2018-08-20T19:41:22.188Z,25.80
2018-08-20T19:46:26.371Z,25.80
2018-08-20T19:51:21.104Z,25.80
2018-08-20T19:56:15.928Z,25.80
2018-08-20T20:01:14.301Z,25.80
2018-08-20T20:06:09.101Z,25.80
2018-08-20T20:11:03.798Z,25.60
2018-08-20T20:15:59.612Z,25.50
2018-08-20T20:20:54.184Z,25.50
2018-08-20T20:25:48.765Z,25.40
2018-08-20T20:30:43.442Z,25.20
2018-08-20T20:35:38.046Z,25.10
2018-08-20T20:40:32.588Z,25.00
2018-08-20T20:45:27.146Z,25.00
2018-08-20T20:50:21.820Z,24.90
2018-08-20T20:55:16.377Z,24.90
2018-08-20T21:00:11.393Z,24.70
2018-08-20T21:05:10.556Z,24.60
2018-08-20T21:10:06.121Z,24.50
2018-08-20T21:15:00.773Z,24.50
2018-08-20T21:19:55.316Z,24.30
2018-08-20T21:24:49.834Z,24.30
2018-08-20T21:29:44.337Z,24.40
2018-08-20T21:34:41.453Z,24.30
2018-08-20T21:39:36.116Z,24.30
2018-08-20T21:44:30.722Z,24.20
2018-08-20T21:49:25.267Z,24.10
2018-08-20T21:54:25.785Z,24.20
2018-08-20T21:59:20.343Z,24.00
2018-08-20T22:04:20.044Z,24.00
2018-08-20T22:09:14.949Z,23.90
2018-08-20T22:14:09.479Z,23.90
2018-08-20T22:19:04.005Z,23.80
2018-08-20T22:24:00.568Z,23.70
2018-08-20T22:28:55.124Z,23.70
2018-08-20T22:33:58.925Z,23.60
2018-08-20T22:38:58.857Z,23.40
2018-08-20T22:43:53.375Z,23.30
2018-08-20T22:48:52.532Z,23.10
2018-08-20T22:53:49.944Z,23.00
2018-08-20T22:58:44.476Z,22.90
2018-08-20T23:03:38.989Z,22.90
2018-08-20T23:08:33.609Z,22.90
2018-08-20T23:13:28.366Z,23.00
2018-08-20T23:18:22.864Z,23.00
2018-08-20T23:23:22.537Z,22.90
2018-08-20T23:28:17.064Z,22.90
2018-08-20T23:33:11.573Z,22.80
2018-08-20T23:38:06.076Z,22.70
2018-08-20T23:43:00.647Z,22.60
2018-08-20T23:47:55.180Z,22.50
2018-08-20T23:52:49.688Z,22.40
2018-08-20T23:57:44.180Z,22.30
